sensor_id;sensor_type;location;lat;lon;timestamp;temperature;humidity
6377;DHT22;3221;48.858;10.128;2023-12-29T00:02:06;7.30;99.90
6377;DHT22;3221;48.858;10.128;2023-12-29T00:04:33;7.40;99.90
6377;DHT22;3221;48.858;10.128;2023-12-29T00:07:01;7.30;99.90
6377;DHT22;3221;48.858;10.128;2023-12-29T00:09:29;7.40;99.90
6377;DHT22;3221;48.858;10.128;2023-12-29T00:11:56;7.50;99.90
6377;DHT22;3221;48.858;10.128;2023-12-29T00:14:23;7.20;99.90
6377;DHT22;3221;48.858;10.128;2023-12-29T00:16:50;7.30;99.90
6377;DHT22;3221;48.858;10.128;2023-12-29T00:19:16;7.40;99.90
6377;DHT22;3221;48.858;10.128;2023-12-29T00:21:44;7.20;99.90
6377;DHT22;3221;48.858;10.128;2023-12-29T00:24:11;7.30;99.90
6377;DHT22;3221;48.858;10.128;2023-12-29T00:26:38;7.30;99.90
6377;DHT22;3221;48.858;10.128;2023-12-29T00:29:05;7.30;99.90
6377;DHT22;3221;48.858;10.128;2023-12-29T00:31:33;7.30;99.90
6377;DHT22;3221;48.858;10.128;2023-12-29T00:34:00;7.30;99.90
6377;DHT22;3221;48.858;10.128;2023-12-29T00:36:27;7.30;99.90
6377;DHT22;3221;48.858;10.128;2023-12-29T00:38:54;7.30;99.90
6377;DHT22;3221;48.858;10.128;2023-12-29T00:41:21;7.30;99.90
6377;DHT22;3221;48.858;10.128;2023-12-29T00:43:48;7.30;99.90
6377;DHT22;3221;48.858;10.128;2023-12-29T00:46:15;7.40;99.90
6377;DHT22;3221;48.858;10.128;2023-12-29T00:48:45;7.40;99.90
6377;DHT22;3221;48.858;10.128;2023-12-29T00:51:12;7.30;99.90
6377;DHT22;3221;48.858;10.128;2023-12-29T00:53:39;7.30;99.90
6377;DHT22;3221;48.858;10.128;2023-12-29T00:56:10;7.40;99.90
6377;DHT22;3221;48.858;10.128;2023-12-29T00:58:38;7.40;99.90
6377;DHT22;3221;48.858;10.128;2023-12-29T01:01:07;7.40;99.90
6377;DHT22;3221;48.858;10.128;2023-12-29T01:03:38;7.50;99.90
6377;DHT22;3221;48.858;10.128;2023-12-29T01:06:06;7.50;99.90
6377;DHT22;3221;48.858;10.128;2023-12-29T01:08:33;7.50;99.90
6377;DHT22;3221;48.858;10.128;2023-12-29T01:11:00;7.30;99.90
6377;DHT22;3221;48.858;10.128;2023-12-29T01:13:27;7.40;99.90
6377;DHT22;3221;48.858;10.128;2023-12-29T01:15:54;7.40;99.90
6377;DHT22;3221;48.858;10.128;2023-12-29T01:18:22;7.30;99.90
6377;DHT22;3221;48.858;10.128;2023-12-29T01:20:50;7.30;99.90
6377;DHT22;3221;48.858;10.128;2023-12-29T01:23:17;7.20;99.90
6377;DHT22;3221;48.858;10.128;2023-12-29T01:25:44;7.30;99.90
6377;DHT22;3221;48.858;10.128;2023-12-29T01:28:11;7.30;99.90
6377;DHT22;3221;48.858;10.128;2023-12-29T01:30:38;7.20;99.90
6377;DHT22;3221;48.858;10.128;2023-12-29T01:33:06;7.20;99.90
6377;DHT22;3221;48.858;10.128;2023-12-29T01:35:33;7.50;99.90
6377;DHT22;3221;48.858;10.128;2023-12-29T01:38:00;7.20;99.90
6377;DHT22;3221;48.858;10.128;2023-12-29T01:40:28;7.20;99.90
6377;DHT22;3221;48.858;10.128;2023-12-29T01:42:56;7.20;99.90
6377;DHT22;3221;48.858;10.128;2023-12-29T01:45:24;7.10;99.90
6377;DHT22;3221;48.858;10.128;2023-12-29T01:47:53;7.00;99.90
6377;DHT22;3221;48.858;10.128;2023-12-29T01:50:22;7.10;99.90
6377;DHT22;3221;48.858;10.128;2023-12-29T01:52:50;7.40;99.90
6377;DHT22;3221;48.858;10.128;2023-12-29T01:55:20;7.30;99.90
6377;DHT22;3221;48.858;10.128;2023-12-29T01:57:49;7.20;99.90
6377;DHT22;3221;48.858;10.128;2023-12-29T02:00:17;7.20;99.90
6377;DHT22;3221;48.858;10.128;2023-12-29T02:02:46;7.20;99.90
6377;DHT22;3221;48.858;10.128;2023-12-29T02:05:14;7.10;99.90
6377;DHT22;3221;48.858;10.128;2023-12-29T02:07:43;7.20;99.90
6377;DHT22;3221;48.858;10.128;2023-12-29T02:10:11;7.20;99.90
6377;DHT22;3221;48.858;10.128;2023-12-29T02:12:42;7.30;99.90
6377;DHT22;3221;48.858;10.128;2023-12-29T02:15:09;7.30;99.90
6377;DHT22;3221;48.858;10.128;2023-12-29T02:17:41;7.30;99.90
6377;DHT22;3221;48.858;10.128;2023-12-29T02:20:11;7.30;99.90
6377;DHT22;3221;48.858;10.128;2023-12-29T02:22:38;7.20;99.90
6377;DHT22;3221;48.858;10.128;2023-12-29T02:25:06;7.30;99.90
6377;DHT22;3221;48.858;10.128;2023-12-29T02:30:49;7.20;99.90
6377;DHT22;3221;48.858;10.128;2023-12-29T02:33:16;7.30;99.90
6377;DHT22;3221;48.858;10.128;2023-12-29T02:35:46;7.20;99.90
6377;DHT22;3221;48.858;10.128;2023-12-29T02:38:15;7.20;99.90
6377;DHT22;3221;48.858;10.128;2023-12-29T02:40:43;7.20;99.90
6377;DHT22;3221;48.858;10.128;2023-12-29T02:43:10;7.20;99.90
6377;DHT22;3221;48.858;10.128;2023-12-29T02:45:37;7.20;99.90
6377;DHT22;3221;48.858;10.128;2023-12-29T02:48:04;7.30;99.90
6377;DHT22;3221;48.858;10.128;2023-12-29T02:50:32;7.20;99.90
6377;DHT22;3221;48.858;10.128;2023-12-29T02:52:59;7.30;99.90
6377;DHT22;3221;48.858;10.128;2023-12-29T02:55:26;7.20;99.90
6377;DHT22;3221;48.858;10.128;2023-12-29T02:57:53;7.20;99.90
6377;DHT22;3221;48.858;10.128;2023-12-29T03:00:20;7.10;99.90
6377;DHT22;3221;48.858;10.128;2023-12-29T03:02:47;7.30;99.90
6377;DHT22;3221;48.858;10.128;2023-12-29T03:05:14;7.20;99.90
6377;DHT22;3221;48.858;10.128;2023-12-29T03:07:42;7.30;99.90
6377;DHT22;3221;48.858;10.128;2023-12-29T03:10:09;7.30;99.90
6377;DHT22;3221;48.858;10.128;2023-12-29T03:12:36;7.40;99.90
6377;DHT22;3221;48.858;10.128;2023-12-29T03:15:03;7.30;99.90
6377;DHT22;3221;48.858;10.128;2023-12-29T03:17:30;7.20;99.90
6377;DHT22;3221;48.858;10.128;2023-12-29T03:19:58;7.20;99.90
6377;DHT22;3221;48.858;10.128;2023-12-29T03:22:26;7.20;99.90
6377;DHT22;3221;48.858;10.128;2023-12-29T03:24:53;7.20;99.90
6377;DHT22;3221;48.858;10.128;2023-12-29T03:27:20;7.20;99.90
6377;DHT22;3221;48.858;10.128;2023-12-29T03:29:47;7.40;99.90
6377;DHT22;3221;48.858;10.128;2023-12-29T03:32:14;7.30;99.90
6377;DHT22;3221;48.858;10.128;2023-12-29T03:34:42;7.40;99.90
6377;DHT22;3221;48.858;10.128;2023-12-29T03:37:09;7.30;99.90
6377;DHT22;3221;48.858;10.128;2023-12-29T03:39:36;7.30;99.90
6377;DHT22;3221;48.858;10.128;2023-12-29T03:42:04;7.30;99.90
6377;DHT22;3221;48.858;10.128;2023-12-29T03:44:31;7.30;99.90
6377;DHT22;3221;48.858;10.128;2023-12-29T03:46:58;7.30;99.90
6377;DHT22;3221;48.858;10.128;2023-12-29T03:49:25;7.30;99.90
6377;DHT22;3221;48.858;10.128;2023-12-29T03:51:52;7.20;99.90
6377;DHT22;3221;48.858;10.128;2023-12-29T03:54:19;7.30;99.90
6377;DHT22;3221;48.858;10.128;2023-12-29T03:56:48;7.30;99.90
6377;DHT22;3221;48.858;10.128;2023-12-29T03:59:15;7.30;99.90
6377;DHT22;3221;48.858;10.128;2023-12-29T04:01:42;7.30;99.90
6377;DHT22;3221;48.858;10.128;2023-12-29T04:04:09;7.40;99.90
6377;DHT22;3221;48.858;10.128;2023-12-29T04:06:36;7.30;99.90
6377;DHT22;3221;48.858;10.128;2023-12-29T04:09:03;7.30;99.90
6377;DHT22;3221;48.858;10.128;2023-12-29T04:11:31;7.20;99.90
6377;DHT22;3221;48.858;10.128;2023-12-29T04:13:58;7.20;99.90
6377;DHT22;3221;48.858;10.128;2023-12-29T04:16:25;7.30;99.90
6377;DHT22;3221;48.858;10.128;2023-12-29T04:18:52;7.30;99.90
6377;DHT22;3221;48.858;10.128;2023-12-29T04:21:19;7.30;99.90
6377;DHT22;3221;48.858;10.128;2023-12-29T04:23:46;7.30;99.90
6377;DHT22;3221;48.858;10.128;2023-12-29T04:26:13;7.30;99.90
6377;DHT22;3221;48.858;10.128;2023-12-29T04:28:41;7.30;99.90
6377;DHT22;3221;48.858;10.128;2023-12-29T04:31:08;7.20;99.90
6377;DHT22;3221;48.858;10.128;2023-12-29T04:33:35;7.30;99.90
6377;DHT22;3221;48.858;10.128;2023-12-29T04:36:03;7.40;99.90
6377;DHT22;3221;48.858;10.128;2023-12-29T04:38:30;7.30;99.90
6377;DHT22;3221;48.858;10.128;2023-12-29T04:40:56;7.30;99.90
6377;DHT22;3221;48.858;10.128;2023-12-29T04:43:23;7.40;99.90
6377;DHT22;3221;48.858;10.128;2023-12-29T04:45:50;7.30;99.90
6377;DHT22;3221;48.858;10.128;2023-12-29T04:48:17;7.40;99.90
6377;DHT22;3221;48.858;10.128;2023-12-29T04:50:44;7.30;99.90
6377;DHT22;3221;48.858;10.128;2023-12-29T04:53:11;7.30;99.90
6377;DHT22;3221;48.858;10.128;2023-12-29T04:55:38;7.30;99.90
6377;DHT22;3221;48.858;10.128;2023-12-29T04:58:05;7.30;99.90
6377;DHT22;3221;48.858;10.128;2023-12-29T05:00:32;7.30;99.90
6377;DHT22;3221;48.858;10.128;2023-12-29T05:03:00;7.40;99.90
6377;DHT22;3221;48.858;10.128;2023-12-29T05:05:27;7.30;99.90
6377;DHT22;3221;48.858;10.128;2023-12-29T05:07:54;7.30;99.90
6377;DHT22;3221;48.858;10.128;2023-12-29T05:10:21;7.40;99.90
6377;DHT22;3221;48.858;10.128;2023-12-29T05:12:47;7.30;99.90
6377;DHT22;3221;48.858;10.128;2023-12-29T05:15:15;7.30;99.90
6377;DHT22;3221;48.858;10.128;2023-12-29T05:17:41;7.40;99.90
6377;DHT22;3221;48.858;10.128;2023-12-29T05:20:09;7.30;99.90
6377;DHT22;3221;48.858;10.128;2023-12-29T05:22:36;7.30;99.90
6377;DHT22;3221;48.858;10.128;2023-12-29T05:25:03;7.20;99.90
6377;DHT22;3221;48.858;10.128;2023-12-29T05:27:30;7.30;99.90
6377;DHT22;3221;48.858;10.128;2023-12-29T05:30:01;7.30;99.90
6377;DHT22;3221;48.858;10.128;2023-12-29T05:32:27;7.20;99.90
6377;DHT22;3221;48.858;10.128;2023-12-29T05:34:54;7.20;99.90
6377;DHT22;3221;48.858;10.128;2023-12-29T05:37:21;7.20;99.90
6377;DHT22;3221;48.858;10.128;2023-12-29T05:39:49;7.30;99.90
6377;DHT22;3221;48.858;10.128;2023-12-29T05:42:16;7.20;99.90
6377;DHT22;3221;48.858;10.128;2023-12-29T05:44:43;7.30;99.90
6377;DHT22;3221;48.858;10.128;2023-12-29T05:47:09;7.30;99.90
6377;DHT22;3221;48.858;10.128;2023-12-29T05:49:36;7.20;99.90
6377;DHT22;3221;48.858;10.128;2023-12-29T05:52:06;7.30;99.90
6377;DHT22;3221;48.858;10.128;2023-12-29T05:54:34;7.30;99.90
6377;DHT22;3221;48.858;10.128;2023-12-29T05:57:01;7.30;99.90
6377;DHT22;3221;48.858;10.128;2023-12-29T05:59:29;7.40;99.90
6377;DHT22;3221;48.858;10.128;2023-12-29T06:01:56;7.40;99.90
6377;DHT22;3221;48.858;10.128;2023-12-29T06:04:23;7.30;99.90
6377;DHT22;3221;48.858;10.128;2023-12-29T06:06:50;7.30;99.90
6377;DHT22;3221;48.858;10.128;2023-12-29T06:09:18;7.20;99.90
6377;DHT22;3221;48.858;10.128;2023-12-29T06:11:45;7.30;99.90
6377;DHT22;3221;48.858;10.128;2023-12-29T06:14:12;7.30;99.90
6377;DHT22;3221;48.858;10.128;2023-12-29T06:16:39;7.30;99.90
6377;DHT22;3221;48.858;10.128;2023-12-29T06:19:06;7.30;99.90
6377;DHT22;3221;48.858;10.128;2023-12-29T06:21:33;7.30;99.90
6377;DHT22;3221;48.858;10.128;2023-12-29T06:24:00;7.30;99.90
6377;DHT22;3221;48.858;10.128;2023-12-29T06:26:27;7.30;99.90
6377;DHT22;3221;48.858;10.128;2023-12-29T06:28:54;7.30;99.90
6377;DHT22;3221;48.858;10.128;2023-12-29T06:31:21;7.30;99.90
6377;DHT22;3221;48.858;10.128;2023-12-29T06:33:48;7.30;99.90
6377;DHT22;3221;48.858;10.128;2023-12-29T06:36:15;7.30;99.90
6377;DHT22;3221;48.858;10.128;2023-12-29T06:38:42;7.40;99.90
6377;DHT22;3221;48.858;10.128;2023-12-29T06:41:12;7.30;99.90
6377;DHT22;3221;48.858;10.128;2023-12-29T06:43:40;7.30;99.90
6377;DHT22;3221;48.858;10.128;2023-12-29T06:46:07;7.30;99.90
6377;DHT22;3221;48.858;10.128;2023-12-29T06:48:36;7.30;99.90
6377;DHT22;3221;48.858;10.128;2023-12-29T06:51:03;7.30;99.90
6377;DHT22;3221;48.858;10.128;2023-12-29T06:53:30;7.30;99.90
6377;DHT22;3221;48.858;10.128;2023-12-29T06:55:57;7.30;99.90
6377;DHT22;3221;48.858;10.128;2023-12-29T06:58:24;7.30;99.90
6377;DHT22;3221;48.858;10.128;2023-12-29T07:00:51;7.30;99.90
6377;DHT22;3221;48.858;10.128;2023-12-29T07:03:18;7.30;99.90
6377;DHT22;3221;48.858;10.128;2023-12-29T07:05:45;7.30;99.90
6377;DHT22;3221;48.858;10.128;2023-12-29T07:08:13;7.30;99.90
6377;DHT22;3221;48.858;10.128;2023-12-29T07:10:41;7.30;99.90
6377;DHT22;3221;48.858;10.128;2023-12-29T07:13:08;7.30;99.90
6377;DHT22;3221;48.858;10.128;2023-12-29T07:15:35;7.30;99.90
6377;DHT22;3221;48.858;10.128;2023-12-29T07:18:02;7.30;99.90
6377;DHT22;3221;48.858;10.128;2023-12-29T07:20:30;7.20;99.90
6377;DHT22;3221;48.858;10.128;2023-12-29T07:22:57;7.20;99.90
6377;DHT22;3221;48.858;10.128;2023-12-29T07:25:24;7.30;99.90
6377;DHT22;3221;48.858;10.128;2023-12-29T07:27:51;7.30;99.90
6377;DHT22;3221;48.858;10.128;2023-12-29T07:30:19;7.30;99.90
6377;DHT22;3221;48.858;10.128;2023-12-29T07:32:46;7.30;99.90
6377;DHT22;3221;48.858;10.128;2023-12-29T07:35:13;7.30;99.90
6377;DHT22;3221;48.858;10.128;2023-12-29T07:37:44;7.30;99.90
6377;DHT22;3221;48.858;10.128;2023-12-29T07:40:12;7.30;99.90
6377;DHT22;3221;48.858;10.128;2023-12-29T07:42:40;7.30;99.90
6377;DHT22;3221;48.858;10.128;2023-12-29T07:45:08;7.30;99.90
6377;DHT22;3221;48.858;10.128;2023-12-29T07:47:36;7.30;99.90
6377;DHT22;3221;48.858;10.128;2023-12-29T07:50:04;7.30;99.90
6377;DHT22;3221;48.858;10.128;2023-12-29T07:52:31;7.40;99.90
6377;DHT22;3221;48.858;10.128;2023-12-29T07:54:58;7.40;99.90
6377;DHT22;3221;48.858;10.128;2023-12-29T07:57:25;7.50;99.90
6377;DHT22;3221;48.858;10.128;2023-12-29T07:59:52;7.40;99.90
6377;DHT22;3221;48.858;10.128;2023-12-29T08:02:19;7.40;99.90
6377;DHT22;3221;48.858;10.128;2023-12-29T08:04:46;7.40;99.90
6377;DHT22;3221;48.858;10.128;2023-12-29T08:07:18;7.50;99.90
6377;DHT22;3221;48.858;10.128;2023-12-29T08:09:45;7.50;99.90
6377;DHT22;3221;48.858;10.128;2023-12-29T08:12:12;7.40;99.90
6377;DHT22;3221;48.858;10.128;2023-12-29T08:14:40;7.60;99.90
6377;DHT22;3221;48.858;10.128;2023-12-29T08:17:07;7.40;99.90
6377;DHT22;3221;48.858;10.128;2023-12-29T08:19:35;7.50;99.90
6377;DHT22;3221;48.858;10.128;2023-12-29T08:22:02;7.40;99.90
6377;DHT22;3221;48.858;10.128;2023-12-29T08:24:29;7.50;99.90
6377;DHT22;3221;48.858;10.128;2023-12-29T08:26:56;7.50;99.90
6377;DHT22;3221;48.858;10.128;2023-12-29T08:29:23;7.50;99.90
6377;DHT22;3221;48.858;10.128;2023-12-29T08:31:52;7.80;99.90
6377;DHT22;3221;48.858;10.128;2023-12-29T08:34:19;7.60;99.90
6377;DHT22;3221;48.858;10.128;2023-12-29T08:36:47;7.70;99.90
6377;DHT22;3221;48.858;10.128;2023-12-29T08:39:14;7.70;99.90
6377;DHT22;3221;48.858;10.128;2023-12-29T08:41:41;7.60;99.90
6377;DHT22;3221;48.858;10.128;2023-12-29T08:44:08;7.60;99.90
6377;DHT22;3221;48.858;10.128;2023-12-29T08:46:35;7.60;99.90
6377;DHT22;3221;48.858;10.128;2023-12-29T08:49:02;7.60;99.90
6377;DHT22;3221;48.858;10.128;2023-12-29T08:51:29;7.60;99.90
6377;DHT22;3221;48.858;10.128;2023-12-29T08:53:56;7.70;99.90
6377;DHT22;3221;48.858;10.128;2023-12-29T08:56:23;7.60;99.90
6377;DHT22;3221;48.858;10.128;2023-12-29T08:58:53;7.70;99.90
6377;DHT22;3221;48.858;10.128;2023-12-29T09:01:20;7.70;99.90
6377;DHT22;3221;48.858;10.128;2023-12-29T09:03:47;7.70;99.90
6377;DHT22;3221;48.858;10.128;2023-12-29T09:06:15;7.70;99.90
6377;DHT22;3221;48.858;10.128;2023-12-29T09:08:42;7.70;99.90
6377;DHT22;3221;48.858;10.128;2023-12-29T09:11:09;7.80;99.90
6377;DHT22;3221;48.858;10.128;2023-12-29T09:13:37;7.70;99.90
6377;DHT22;3221;48.858;10.128;2023-12-29T09:16:04;7.80;99.90
6377;DHT22;3221;48.858;10.128;2023-12-29T09:18:31;7.80;99.90
6377;DHT22;3221;48.858;10.128;2023-12-29T09:21:00;7.90;99.90
6377;DHT22;3221;48.858;10.128;2023-12-29T09:23:27;7.70;99.90
6377;DHT22;3221;48.858;10.128;2023-12-29T09:25:54;7.80;99.90
6377;DHT22;3221;48.858;10.128;2023-12-29T09:28:21;7.80;99.90
6377;DHT22;3221;48.858;10.128;2023-12-29T09:30:48;7.80;99.90
6377;DHT22;3221;48.858;10.128;2023-12-29T09:33:16;7.90;99.90
6377;DHT22;3221;48.858;10.128;2023-12-29T09:35:43;7.90;99.90
6377;DHT22;3221;48.858;10.128;2023-12-29T09:38:09;8.00;99.90
6377;DHT22;3221;48.858;10.128;2023-12-29T09:40:37;8.00;99.90
6377;DHT22;3221;48.858;10.128;2023-12-29T09:43:04;8.00;99.90
6377;DHT22;3221;48.858;10.128;2023-12-29T09:45:33;8.00;99.90
6377;DHT22;3221;48.858;10.128;2023-12-29T09:48:01;8.00;99.90
6377;DHT22;3221;48.858;10.128;2023-12-29T09:50:30;8.00;99.90
6377;DHT22;3221;48.858;10.128;2023-12-29T09:52:57;8.00;99.90
6377;DHT22;3221;48.858;10.128;2023-12-29T09:55:26;7.90;99.90
6377;DHT22;3221;48.858;10.128;2023-12-29T09:57:53;8.10;99.90
6377;DHT22;3221;48.858;10.128;2023-12-29T10:00:21;8.00;99.90
6377;DHT22;3221;48.858;10.128;2023-12-29T10:02:51;7.90;99.90
6377;DHT22;3221;48.858;10.128;2023-12-29T10:05:19;8.00;99.90
6377;DHT22;3221;48.858;10.128;2023-12-29T10:07:47;8.00;99.90
6377;DHT22;3221;48.858;10.128;2023-12-29T10:10:15;7.90;99.90
6377;DHT22;3221;48.858;10.128;2023-12-29T10:12:44;8.00;99.90
6377;DHT22;3221;48.858;10.128;2023-12-29T10:15:24;7.90;99.90
6377;DHT22;3221;48.858;10.128;2023-12-29T10:23:43;8.00;99.90
6377;DHT22;3221;48.858;10.128;2023-12-29T10:26:14;8.10;99.90
6377;DHT22;3221;48.858;10.128;2023-12-29T10:28:43;8.10;99.90
6377;DHT22;3221;48.858;10.128;2023-12-29T10:31:14;8.20;99.90
6377;DHT22;3221;48.858;10.128;2023-12-29T10:33:42;8.00;99.90
6377;DHT22;3221;48.858;10.128;2023-12-29T10:36:09;8.10;99.90
6377;DHT22;3221;48.858;10.128;2023-12-29T10:38:39;8.10;99.90
6377;DHT22;3221;48.858;10.128;2023-12-29T10:41:16;8.10;99.90
6377;DHT22;3221;48.858;10.128;2023-12-29T10:43:45;8.00;99.90
6377;DHT22;3221;48.858;10.128;2023-12-29T10:46:19;8.10;99.90
6377;DHT22;3221;48.858;10.128;2023-12-29T10:48:47;8.20;99.90
6377;DHT22;3221;48.858;10.128;2023-12-29T10:51:15;8.10;99.90
6377;DHT22;3221;48.858;10.128;2023-12-29T10:53:54;8.10;99.90
6377;DHT22;3221;48.858;10.128;2023-12-29T10:56:22;8.20;99.90
6377;DHT22;3221;48.858;10.128;2023-12-29T10:58:59;8.30;99.90
6377;DHT22;3221;48.858;10.128;2023-12-29T11:01:26;8.20;99.90
6377;DHT22;3221;48.858;10.128;2023-12-29T11:03:58;8.20;99.90
6377;DHT22;3221;48.858;10.128;2023-12-29T11:06:27;8.30;99.90
6377;DHT22;3221;48.858;10.128;2023-12-29T11:08:56;8.40;99.90
6377;DHT22;3221;48.858;10.128;2023-12-29T11:11:23;8.40;99.90
6377;DHT22;3221;48.858;10.128;2023-12-29T11:13:53;8.30;99.90
6377;DHT22;3221;48.858;10.128;2023-12-29T11:16:21;8.20;99.90
6377;DHT22;3221;48.858;10.128;2023-12-29T11:18:50;8.20;99.90
6377;DHT22;3221;48.858;10.128;2023-12-29T11:21:19;8.30;99.90
6377;DHT22;3221;48.858;10.128;2023-12-29T11:23:48;8.30;99.90
6377;DHT22;3221;48.858;10.128;2023-12-29T11:26:15;8.40;99.90
6377;DHT22;3221;48.858;10.128;2023-12-29T11:28:45;8.40;99.90
6377;DHT22;3221;48.858;10.128;2023-12-29T11:31:12;8.30;99.90
6377;DHT22;3221;48.858;10.128;2023-12-29T11:33:43;8.40;99.90
6377;DHT22;3221;48.858;10.128;2023-12-29T11:36:17;8.30;99.90
6377;DHT22;3221;48.858;10.128;2023-12-29T11:39:04;8.30;99.90
6377;DHT22;3221;48.858;10.128;2023-12-29T11:44:03;8.50;99.90
6377;DHT22;3221;48.858;10.128;2023-12-29T11:46:40;8.60;99.90
6377;DHT22;3221;48.858;10.128;2023-12-29T11:49:10;8.50;99.90
6377;DHT22;3221;48.858;10.128;2023-12-29T11:51:44;8.50;99.90
6377;DHT22;3221;48.858;10.128;2023-12-29T11:54:27;8.50;99.90
6377;DHT22;3221;48.858;10.128;2023-12-29T11:56:54;8.50;99.90
6377;DHT22;3221;48.858;10.128;2023-12-29T11:59:26;8.50;99.90
6377;DHT22;3221;48.858;10.128;2023-12-29T12:01:57;8.70;99.90
6377;DHT22;3221;48.858;10.128;2023-12-29T12:04:37;8.60;99.90
6377;DHT22;3221;48.858;10.128;2023-12-29T12:12:48;8.70;99.90
6377;DHT22;3221;48.858;10.128;2023-12-29T12:17:59;8.60;99.90
6377;DHT22;3221;48.858;10.128;2023-12-29T12:20:27;8.60;99.90
6377;DHT22;3221;48.858;10.128;2023-12-29T12:22:58;8.70;99.90
6377;DHT22;3221;48.858;10.128;2023-12-29T12:25:26;8.60;99.90
6377;DHT22;3221;48.858;10.128;2023-12-29T12:27:55;8.70;99.90
6377;DHT22;3221;48.858;10.128;2023-12-29T12:30:23;8.70;99.90
6377;DHT22;3221;48.858;10.128;2023-12-29T12:33:03;8.60;99.90
6377;DHT22;3221;48.858;10.128;2023-12-29T12:35:32;8.60;99.90
6377;DHT22;3221;48.858;10.128;2023-12-29T12:38:15;8.60;99.90
6377;DHT22;3221;48.858;10.128;2023-12-29T12:40:49;8.60;99.90
6377;DHT22;3221;48.858;10.128;2023-12-29T12:43:17;8.70;99.90
6377;DHT22;3221;48.858;10.128;2023-12-29T12:45:55;8.50;99.90
6377;DHT22;3221;48.858;10.128;2023-12-29T12:48:34;8.50;99.90
6377;DHT22;3221;48.858;10.128;2023-12-29T12:51:02;8.50;99.90
6377;DHT22;3221;48.858;10.128;2023-12-29T12:53:30;8.60;99.90
6377;DHT22;3221;48.858;10.128;2023-12-29T12:55:58;8.60;99.90
6377;DHT22;3221;48.858;10.128;2023-12-29T12:58:25;8.70;99.90
6377;DHT22;3221;48.858;10.128;2023-12-29T13:00:57;8.60;99.90
6377;DHT22;3221;48.858;10.128;2023-12-29T13:03:25;8.70;99.90
6377;DHT22;3221;48.858;10.128;2023-12-29T13:05:52;8.80;99.90
6377;DHT22;3221;48.858;10.128;2023-12-29T13:08:20;8.60;99.90
6377;DHT22;3221;48.858;10.128;2023-12-29T13:11:00;8.60;99.90
6377;DHT22;3221;48.858;10.128;2023-12-29T13:13:54;8.70;99.90
6377;DHT22;3221;48.858;10.128;2023-12-29T13:16:37;8.60;99.90
6377;DHT22;3221;48.858;10.128;2023-12-29T13:19:24;8.70;99.90
6377;DHT22;3221;48.858;10.128;2023-12-29T13:21:54;8.70;99.90
6377;DHT22;3221;48.858;10.128;2023-12-29T13:24:25;8.80;99.90
6377;DHT22;3221;48.858;10.128;2023-12-29T13:26:55;8.80;99.90
6377;DHT22;3221;48.858;10.128;2023-12-29T13:29:25;8.70;99.90
6377;DHT22;3221;48.858;10.128;2023-12-29T13:31:55;8.70;99.90
6377;DHT22;3221;48.858;10.128;2023-12-29T13:34:36;8.70;99.90
6377;DHT22;3221;48.858;10.128;2023-12-29T13:37:11;8.80;99.90
6377;DHT22;3221;48.858;10.128;2023-12-29T13:40:23;8.80;99.90
6377;DHT22;3221;48.858;10.128;2023-12-29T13:42:44;8.70;99.90
6377;DHT22;3221;48.858;10.128;2023-12-29T13:45:13;8.70;99.90
6377;DHT22;3221;48.858;10.128;2023-12-29T13:47:43;8.70;99.90
6377;DHT22;3221;48.858;10.128;2023-12-29T13:50:10;8.90;99.90
6377;DHT22;3221;48.858;10.128;2023-12-29T13:52:37;8.60;99.90
6377;DHT22;3221;48.858;10.128;2023-12-29T13:55:05;8.70;99.90
6377;DHT22;3221;48.858;10.128;2023-12-29T13:57:34;8.70;99.90
6377;DHT22;3221;48.858;10.128;2023-12-29T14:00:23;8.70;99.90
6377;DHT22;3221;48.858;10.128;2023-12-29T14:05:27;8.70;99.90
6377;DHT22;3221;48.858;10.128;2023-12-29T14:10:33;8.70;99.90
6377;DHT22;3221;48.858;10.128;2023-12-29T14:13:08;8.70;99.90
6377;DHT22;3221;48.858;10.128;2023-12-29T14:15:36;8.90;99.90
6377;DHT22;3221;48.858;10.128;2023-12-29T14:20:34;8.90;99.90
6377;DHT22;3221;48.858;10.128;2023-12-29T14:23:05;8.70;99.90
6377;DHT22;3221;48.858;10.128;2023-12-29T14:25:36;8.70;99.90
6377;DHT22;3221;48.858;10.128;2023-12-29T14:28:14;8.70;99.90
6377;DHT22;3221;48.858;10.128;2023-12-29T14:30:41;8.70;99.90
6377;DHT22;3221;48.858;10.128;2023-12-29T14:33:08;8.70;99.90
6377;DHT22;3221;48.858;10.128;2023-12-29T14:35:35;8.80;99.90
6377;DHT22;3221;48.858;10.128;2023-12-29T14:38:03;8.80;99.90
6377;DHT22;3221;48.858;10.128;2023-12-29T14:40:30;8.60;99.90
6377;DHT22;3221;48.858;10.128;2023-12-29T14:43:01;8.60;99.90
6377;DHT22;3221;48.858;10.128;2023-12-29T14:45:28;8.50;99.90
6377;DHT22;3221;48.858;10.128;2023-12-29T14:47:58;8.70;99.90
6377;DHT22;3221;48.858;10.128;2023-12-29T14:50:27;8.60;99.90
6377;DHT22;3221;48.858;10.128;2023-12-29T14:52:54;8.60;99.90
6377;DHT22;3221;48.858;10.128;2023-12-29T14:55:21;8.60;99.90
6377;DHT22;3221;48.858;10.128;2023-12-29T14:57:48;8.50;99.90
6377;DHT22;3221;48.858;10.128;2023-12-29T15:00:15;8.50;99.90
6377;DHT22;3221;48.858;10.128;2023-12-29T15:02:43;8.50;99.90
6377;DHT22;3221;48.858;10.128;2023-12-29T15:05:10;8.60;99.90
6377;DHT22;3221;48.858;10.128;2023-12-29T15:07:37;8.50;99.90
6377;DHT22;3221;48.858;10.128;2023-12-29T15:10:04;8.50;99.90
6377;DHT22;3221;48.858;10.128;2023-12-29T15:12:31;8.50;99.90
6377;DHT22;3221;48.858;10.128;2023-12-29T15:14:58;8.40;99.90
6377;DHT22;3221;48.858;10.128;2023-12-29T15:17:25;8.40;99.90
6377;DHT22;3221;48.858;10.128;2023-12-29T15:19:52;8.50;99.90
6377;DHT22;3221;48.858;10.128;2023-12-29T15:22:19;8.50;99.90
6377;DHT22;3221;48.858;10.128;2023-12-29T15:24:46;8.50;99.90
6377;DHT22;3221;48.858;10.128;2023-12-29T15:27:13;8.50;99.90
6377;DHT22;3221;48.858;10.128;2023-12-29T15:29:40;8.50;99.90
6377;DHT22;3221;48.858;10.128;2023-12-29T15:32:07;8.50;99.90
6377;DHT22;3221;48.858;10.128;2023-12-29T15:34:34;8.50;99.90
6377;DHT22;3221;48.858;10.128;2023-12-29T15:37:01;8.40;99.90
6377;DHT22;3221;48.858;10.128;2023-12-29T15:39:29;8.40;99.90
6377;DHT22;3221;48.858;10.128;2023-12-29T15:41:57;8.40;99.90
6377;DHT22;3221;48.858;10.128;2023-12-29T15:44:23;8.30;99.90
6377;DHT22;3221;48.858;10.128;2023-12-29T15:46:51;8.40;99.90
6377;DHT22;3221;48.858;10.128;2023-12-29T15:49:19;8.40;99.90
6377;DHT22;3221;48.858;10.128;2023-12-29T15:51:46;8.50;99.90
6377;DHT22;3221;48.858;10.128;2023-12-29T15:54:13;8.40;99.90
6377;DHT22;3221;48.858;10.128;2023-12-29T15:56:39;8.30;99.90
6377;DHT22;3221;48.858;10.128;2023-12-29T15:59:06;8.30;99.90
6377;DHT22;3221;48.858;10.128;2023-12-29T16:01:33;8.30;99.90
6377;DHT22;3221;48.858;10.128;2023-12-29T16:04:02;8.10;99.90
6377;DHT22;3221;48.858;10.128;2023-12-29T16:06:29;8.20;99.90
6377;DHT22;3221;48.858;10.128;2023-12-29T16:08:56;8.30;99.90
6377;DHT22;3221;48.858;10.128;2023-12-29T16:11:25;8.20;99.90
6377;DHT22;3221;48.858;10.128;2023-12-29T16:13:53;8.20;99.90
6377;DHT22;3221;48.858;10.128;2023-12-29T16:16:20;8.10;99.90
6377;DHT22;3221;48.858;10.128;2023-12-29T16:18:47;8.10;99.90
6377;DHT22;3221;48.858;10.128;2023-12-29T16:21:15;8.10;99.90
6377;DHT22;3221;48.858;10.128;2023-12-29T16:23:41;8.10;99.90
6377;DHT22;3221;48.858;10.128;2023-12-29T16:26:09;8.20;99.90
6377;DHT22;3221;48.858;10.128;2023-12-29T16:28:36;8.20;99.90
6377;DHT22;3221;48.858;10.128;2023-12-29T16:31:04;8.10;99.90
6377;DHT22;3221;48.858;10.128;2023-12-29T16:33:32;8.10;99.90
6377;DHT22;3221;48.858;10.128;2023-12-29T16:36:05;8.00;99.90
6377;DHT22;3221;48.858;10.128;2023-12-29T16:38:32;8.00;99.90